sensor_id;sensor_type;location;lat;lon;timestamp;P1;durP1;ratioP1;P2;durP2;ratioP2
1957;SDS011;979;51.076;13.748;2022-10-03T00:00:09;15.40;;;14.40;;
1957;SDS011;979;51.076;13.748;2022-10-03T00:03:05;15.00;;;14.20;;
1957;SDS011;979;51.076;13.748;2022-10-03T00:05:51;15.67;;;14.47;;
1957;SDS011;979;51.076;13.748;2022-10-03T00:08:51;14.77;;;13.67;;
1957;SDS011;979;51.076;13.748;2022-10-03T00:11:41;14.67;;;13.70;;
1957;SDS011;979;51.076;13.748;2022-10-03T00:14:37;14.40;;;13.80;;
1957;SDS011;979;51.076;13.748;2022-10-03T00:17:22;14.80;;;14.00;;
1957;SDS011;979;51.076;13.748;2022-10-03T00:20:00;15.40;;;14.10;;
1957;SDS011;979;51.076;13.748;2022-10-03T00:22:53;15.07;;;14.50;;
1957;SDS011;979;51.076;13.748;2022-10-03T00:25:30;15.43;;;14.00;;
1957;SDS011;979;51.076;13.748;2022-10-03T00:28:15;15.00;;;14.07;;
1957;SDS011;979;51.076;13.748;2022-10-03T00:31:16;14.83;;;14.03;;
1957;SDS011;979;51.076;13.748;2022-10-03T00:34:02;14.07;;;13.47;;
1957;SDS011;979;51.076;13.748;2022-10-03T00:36:55;15.80;;;14.40;;
1957;SDS011;979;51.076;13.748;2022-10-03T00:46:10;15.07;;;14.27;;
1957;SDS011;979;51.076;13.748;2022-10-03T00:49:15;13.90;;;13.10;;
1957;SDS011;979;51.076;13.748;2022-10-03T00:52:12;14.67;;;13.57;;
1957;SDS011;979;51.076;13.748;2022-10-03T00:54:59;14.60;;;13.63;;
1957;SDS011;979;51.076;13.748;2022-10-03T00:57:44;15.43;;;14.33;;
1957;SDS011;979;51.076;13.748;2022-10-03T01:00:30;15.37;;;14.00;;
1957;SDS011;979;51.076;13.748;2022-10-03T01:03:04;15.03;;;13.97;;
1957;SDS011;979;51.076;13.748;2022-10-03T01:05:57;14.73;;;13.50;;
1957;SDS011;979;51.076;13.748;2022-10-03T01:08:42;14.90;;;13.50;;
1957;SDS011;979;51.076;13.748;2022-10-03T01:11:24;15.37;;;14.47;;
1957;SDS011;979;51.076;13.748;2022-10-03T01:14:10;14.73;;;13.70;;
1957;SDS011;979;51.076;13.748;2022-10-03T01:16:55;14.43;;;13.53;;
1957;SDS011;979;51.076;13.748;2022-10-03T01:20:05;14.93;;;13.93;;
1957;SDS011;979;51.076;13.748;2022-10-03T01:22:58;11.70;;;11.50;;
1957;SDS011;979;51.076;13.748;2022-10-03T01:25:58;14.23;;;13.30;;
1957;SDS011;979;51.076;13.748;2022-10-03T01:28:41;14.27;;;13.13;;
1957;SDS011;979;51.076;13.748;2022-10-03T01:31:35;15.73;;;13.90;;
1957;SDS011;979;51.076;13.748;2022-10-03T01:34:11;17.27;;;15.27;;
1957;SDS011;979;51.076;13.748;2022-10-03T01:36:51;14.40;;;13.53;;
1957;SDS011;979;51.076;13.748;2022-10-03T01:39:35;14.93;;;13.70;;
1957;SDS011;979;51.076;13.748;2022-10-03T01:42:16;15.30;;;14.10;;
1957;SDS011;979;51.076;13.748;2022-10-03T01:45:11;14.53;;;13.63;;
1957;SDS011;979;51.076;13.748;2022-10-03T01:48:13;14.10;;;12.90;;
1957;SDS011;979;51.076;13.748;2022-10-03T01:50:58;14.43;;;13.17;;
1957;SDS011;979;51.076;13.748;2022-10-03T01:53:47;15.27;;;14.00;;
1957;SDS011;979;51.076;13.748;2022-10-03T01:56:34;14.33;;;13.20;;
1957;SDS011;979;51.076;13.748;2022-10-03T01:59:10;16.97;;;14.30;;
1957;SDS011;979;51.076;13.748;2022-10-03T02:01:47;17.83;;;14.13;;
1957;SDS011;979;51.076;13.748;2022-10-03T02:04:30;13.70;;;13.10;;
1957;SDS011;979;51.076;13.748;2022-10-03T02:07:14;13.93;;;13.13;;
1957;SDS011;979;51.076;13.748;2022-10-03T02:09:53;14.20;;;13.17;;
1957;SDS011;979;51.076;13.748;2022-10-03T02:12:30;14.33;;;13.43;;
1957;SDS011;979;51.076;13.748;2022-10-03T02:15:06;14.47;;;13.60;;
1957;SDS011;979;51.076;13.748;2022-10-03T02:17:44;13.00;;;12.40;;
1957;SDS011;979;51.076;13.748;2022-10-03T02:20:22;15.53;;;14.23;;
1957;SDS011;979;51.076;13.748;2022-10-03T02:22:55;14.40;;;13.40;;
1957;SDS011;979;51.076;13.748;2022-10-03T02:25:35;14.47;;;13.40;;
1957;SDS011;979;51.076;13.748;2022-10-03T02:28:24;14.40;;;13.60;;
1957;SDS011;979;51.076;13.748;2022-10-03T02:31:34;14.57;;;13.37;;
1957;SDS011;979;51.076;13.748;2022-10-03T02:34:27;14.23;;;13.33;;
1957;SDS011;979;51.076;13.748;2022-10-03T02:37:32;14.90;;;13.90;;
1957;SDS011;979;51.076;13.748;2022-10-03T02:40:23;17.30;;;15.90;;
1957;SDS011;979;51.076;13.748;2022-10-03T02:49:43;14.57;;;13.60;;
1957;SDS011;979;51.076;13.748;2022-10-03T03:02:04;15.13;;;13.80;;
1957;SDS011;979;51.076;13.748;2022-10-03T03:05:06;15.17;;;13.83;;
1957;SDS011;979;51.076;13.748;2022-10-03T03:08:16;15.00;;;13.73;;
1957;SDS011;979;51.076;13.748;2022-10-03T03:11:15;14.27;;;13.67;;
1957;SDS011;979;51.076;13.748;2022-10-03T03:16:59;16.07;;;14.83;;
1957;SDS011;979;51.076;13.748;2022-10-03T03:19:36;15.63;;;14.27;;
1957;SDS011;979;51.076;13.748;2022-10-03T03:22:38;15.87;;;14.60;;
1957;SDS011;979;51.076;13.748;2022-10-03T03:25:29;15.83;;;14.40;;
1957;SDS011;979;51.076;13.748;2022-10-03T03:28:19;15.47;;;14.43;;
1957;SDS011;979;51.076;13.748;2022-10-03T03:31:00;16.43;;;15.13;;
1957;SDS011;979;51.076;13.748;2022-10-03T03:33:38;15.53;;;14.63;;
1957;SDS011;979;51.076;13.748;2022-10-03T03:36:21;16.40;;;15.00;;
1957;SDS011;979;51.076;13.748;2022-10-03T03:39:02;16.30;;;14.90;;
1957;SDS011;979;51.076;13.748;2022-10-03T03:41:55;16.57;;;15.23;;
1957;SDS011;979;51.076;13.748;2022-10-03T03:44:46;16.30;;;15.20;;
1957;SDS011;979;51.076;13.748;2022-10-03T03:47:35;16.47;;;15.43;;
1957;SDS011;979;51.076;13.748;2022-10-03T03:50:31;16.73;;;15.37;;
1957;SDS011;979;51.076;13.748;2022-10-03T03:53:26;16.10;;;14.57;;
1957;SDS011;979;51.076;13.748;2022-10-03T03:56:17;15.73;;;14.20;;
1957;SDS011;979;51.076;13.748;2022-10-03T03:59:02;16.07;;;14.53;;
1957;SDS011;979;51.076;13.748;2022-10-03T04:01:53;15.43;;;14.33;;
1957;SDS011;979;51.076;13.748;2022-10-03T04:04:37;15.93;;;14.70;;
1957;SDS011;979;51.076;13.748;2022-10-03T04:07:17;16.30;;;14.80;;
1957;SDS011;979;51.076;13.748;2022-10-03T04:09:57;16.17;;;14.90;;
1957;SDS011;979;51.076;13.748;2022-10-03T04:12:50;15.67;;;14.47;;
1957;SDS011;979;51.076;13.748;2022-10-03T04:15:34;16.43;;;15.10;;
1957;SDS011;979;51.076;13.748;2022-10-03T04:21:29;15.53;;;14.53;;
1957;SDS011;979;51.076;13.748;2022-10-03T04:27:06;16.50;;;15.33;;
1957;SDS011;979;51.076;13.748;2022-10-03T04:29:59;15.50;;;14.40;;
1957;SDS011;979;51.076;13.748;2022-10-03T04:33:02;15.80;;;14.53;;
1957;SDS011;979;51.076;13.748;2022-10-03T04:35:48;16.03;;;14.93;;
1957;SDS011;979;51.076;13.748;2022-10-03T04:38:42;15.70;;;14.73;;
1957;SDS011;979;51.076;13.748;2022-10-03T04:41:23;16.97;;;15.40;;
1957;SDS011;979;51.076;13.748;2022-10-03T04:44:00;16.47;;;15.40;;
1957;SDS011;979;51.076;13.748;2022-10-03T04:46:41;16.50;;;14.90;;
1957;SDS011;979;51.076;13.748;2022-10-03T04:49:16;16.23;;;15.00;;
1957;SDS011;979;51.076;13.748;2022-10-03T04:51:53;18.20;;;16.70;;
1957;SDS011;979;51.076;13.748;2022-10-03T04:54:38;18.13;;;16.43;;
1957;SDS011;979;51.076;13.748;2022-10-03T04:57:19;17.63;;;15.93;;
1957;SDS011;979;51.076;13.748;2022-10-03T04:59:58;16.23;;;14.93;;
1957;SDS011;979;51.076;13.748;2022-10-03T05:02:40;16.50;;;14.80;;
1957;SDS011;979;51.076;13.748;2022-10-03T05:05:20;15.00;;;14.30;;
1957;SDS011;979;51.076;13.748;2022-10-03T05:08:02;15.73;;;14.47;;
1957;SDS011;979;51.076;13.748;2022-10-03T05:13:59;17.50;;;16.40;;
1957;SDS011;979;51.076;13.748;2022-10-03T05:17:00;16.10;;;15.00;;
1957;SDS011;979;51.076;13.748;2022-10-03T05:20:16;14.80;;;14.00;;
1957;SDS011;979;51.076;13.748;2022-10-03T05:22:53;16.00;;;14.80;;
1957;SDS011;979;51.076;13.748;2022-10-03T05:25:34;16.47;;;14.80;;
1957;SDS011;979;51.076;13.748;2022-10-03T05:28:18;15.83;;;15.00;;
1957;SDS011;979;51.076;13.748;2022-10-03T05:31:01;16.60;;;15.27;;
1957;SDS011;979;51.076;13.748;2022-10-03T05:33:44;16.40;;;15.47;;
1957;SDS011;979;51.076;13.748;2022-10-03T05:36:24;15.30;;;14.57;;
1957;SDS011;979;51.076;13.748;2022-10-03T05:39:21;18.03;;;16.20;;
1957;SDS011;979;51.076;13.748;2022-10-03T05:41:54;18.23;;;17.13;;
1957;SDS011;979;51.076;13.748;2022-10-03T05:44:49;16.60;;;15.50;;
1957;SDS011;979;51.076;13.748;2022-10-03T05:47:27;16.60;;;15.50;;
1957;SDS011;979;51.076;13.748;2022-10-03T05:50:22;16.70;;;15.37;;
1957;SDS011;979;51.076;13.748;2022-10-03T05:53:07;16.70;;;15.50;;
1957;SDS011;979;51.076;13.748;2022-10-03T05:55:56;15.87;;;14.70;;
1957;SDS011;979;51.076;13.748;2022-10-03T06:01:45;15.83;;;14.83;;
1957;SDS011;979;51.076;13.748;2022-10-03T06:04:40;15.17;;;14.40;;
1957;SDS011;979;51.076;13.748;2022-10-03T06:07:28;16.47;;;14.80;;
1957;SDS011;979;51.076;13.748;2022-10-03T06:13:11;15.37;;;14.47;;
1957;SDS011;979;51.076;13.748;2022-10-03T06:15:47;15.40;;;14.40;;
1957;SDS011;979;51.076;13.748;2022-10-03T06:18:34;16.50;;;15.50;;
1957;SDS011;979;51.076;13.748;2022-10-03T06:30:43;15.40;;;14.30;;
1957;SDS011;979;51.076;13.748;2022-10-03T06:33:36;16.77;;;15.63;;
1957;SDS011;979;51.076;13.748;2022-10-03T06:36:30;16.77;;;15.20;;
1957;SDS011;979;51.076;13.748;2022-10-03T06:39:26;16.47;;;15.37;;
1957;SDS011;979;51.076;13.748;2022-10-03T06:46:52;16.60;;;15.70;;
1957;SDS011;979;51.076;13.748;2022-10-03T06:53:19;15.90;;;15.20;;
1957;SDS011;979;51.076;13.748;2022-10-03T06:56:20;16.00;;;15.10;;
1957;SDS011;979;51.076;13.748;2022-10-03T06:59:37;16.63;;;15.53;;
1957;SDS011;979;51.076;13.748;2022-10-03T07:02:50;16.37;;;15.00;;
1957;SDS011;979;51.076;13.748;2022-10-03T07:05:52;16.77;;;15.20;;
1957;SDS011;979;51.076;13.748;2022-10-03T07:08:43;16.70;;;15.60;;
1957;SDS011;979;51.076;13.748;2022-10-03T07:18:44;16.57;;;15.50;;
1957;SDS011;979;51.076;13.748;2022-10-03T07:24:59;16.93;;;15.63;;
1957;SDS011;979;51.076;13.748;2022-10-03T07:27:55;16.53;;;14.93;;
1957;SDS011;979;51.076;13.748;2022-10-03T07:30:54;23.03;;;17.93;;
1957;SDS011;979;51.076;13.748;2022-10-03T07:37:09;25.00;;;23.50;;
1957;SDS011;979;51.076;13.748;2022-10-03T07:46:13;24.13;;;22.40;;
1957;SDS011;979;51.076;13.748;2022-10-03T07:49:09;23.30;;;20.80;;
1957;SDS011;979;51.076;13.748;2022-10-03T07:58:48;19.60;;;18.13;;
1957;SDS011;979;51.076;13.748;2022-10-03T08:01:42;18.70;;;17.03;;
1957;SDS011;979;51.076;13.748;2022-10-03T08:07:41;18.37;;;17.00;;
1957;SDS011;979;51.076;13.748;2022-10-03T08:10:48;17.90;;;16.57;;
1957;SDS011;979;51.076;13.748;2022-10-03T08:13:56;17.40;;;16.30;;
1957;SDS011;979;51.076;13.748;2022-10-03T08:16:39;18.07;;;16.83;;
1957;SDS011;979;51.076;13.748;2022-10-03T08:22:30;16.00;;;15.20;;
1957;SDS011;979;51.076;13.748;2022-10-03T08:25:14;18.50;;;17.00;;
1957;SDS011;979;51.076;13.748;2022-10-03T08:28:07;16.80;;;15.87;;
1957;SDS011;979;51.076;13.748;2022-10-03T08:31:11;17.77;;;16.77;;
1957;SDS011;979;51.076;13.748;2022-10-03T08:34:06;16.90;;;15.67;;
1957;SDS011;979;51.076;13.748;2022-10-03T08:37:08;16.90;;;15.90;;
1957;SDS011;979;51.076;13.748;2022-10-03T08:43:32;17.03;;;16.00;;
1957;SDS011;979;51.076;13.748;2022-10-03T08:46:55;15.50;;;14.57;;
1957;SDS011;979;51.076;13.748;2022-10-03T08:49:49;16.40;;;15.13;;
1957;SDS011;979;51.076;13.748;2022-10-03T08:52:47;17.93;;;16.53;;
1957;SDS011;979;51.076;13.748;2022-10-03T08:55:51;15.73;;;14.93;;
1957;SDS011;979;51.076;13.748;2022-10-03T09:06:06;16.43;;;15.50;;
1957;SDS011;979;51.076;13.748;2022-10-03T09:09:30;15.97;;;15.00;;
1957;SDS011;979;51.076;13.748;2022-10-03T09:12:45;17.00;;;15.97;;
1957;SDS011;979;51.076;13.748;2022-10-03T09:16:10;17.07;;;15.90;;
1957;SDS011;979;51.076;13.748;2022-10-03T09:20:07;16.93;;;15.57;;
1957;SDS011;979;51.076;13.748;2022-10-03T09:23:14;16.30;;;15.13;;
1957;SDS011;979;51.076;13.748;2022-10-03T09:32:59;15.43;;;14.30;;
1957;SDS011;979;51.076;13.748;2022-10-03T09:36:01;14.60;;;13.80;;
1957;SDS011;979;51.076;13.748;2022-10-03T09:39:22;15.70;;;15.00;;
1957;SDS011;979;51.076;13.748;2022-10-03T09:42:29;15.77;;;14.80;;
1957;SDS011;979;51.076;13.748;2022-10-03T09:52:13;16.97;;;15.60;;
1957;SDS011;979;51.076;13.748;2022-10-03T09:55:07;15.57;;;14.77;;
1957;SDS011;979;51.076;13.748;2022-10-03T09:57:57;16.37;;;15.30;;
1957;SDS011;979;51.076;13.748;2022-10-03T10:00:51;17.03;;;15.77;;
1957;SDS011;979;51.076;13.748;2022-10-03T10:03:52;15.03;;;14.23;;
1957;SDS011;979;51.076;13.748;2022-10-03T10:10:29;15.50;;;14.50;;
1957;SDS011;979;51.076;13.748;2022-10-03T10:13:49;15.90;;;15.17;;
1957;SDS011;979;51.076;13.748;2022-10-03T10:16:52;15.80;;;14.57;;
1957;SDS011;979;51.076;13.748;2022-10-03T10:20:06;15.97;;;15.07;;
1957;SDS011;979;51.076;13.748;2022-10-03T10:26:27;16.00;;;14.90;;
1957;SDS011;979;51.076;13.748;2022-10-03T10:40:16;14.95;;;14.25;;
1957;SDS011;979;51.076;13.748;2022-10-03T10:47:44;15.23;;;14.57;;
1957;SDS011;979;51.076;13.748;2022-10-03T10:58:00;16.07;;;15.30;;
1957;SDS011;979;51.076;13.748;2022-10-03T11:05:05;14.67;;;13.67;;
1957;SDS011;979;51.076;13.748;2022-10-03T11:11:50;15.70;;;14.90;;
1957;SDS011;979;51.076;13.748;2022-10-03T11:15:12;14.50;;;13.80;;
1957;SDS011;979;51.076;13.748;2022-10-03T11:22:32;16.00;;;14.97;;
1957;SDS011;979;51.076;13.748;2022-10-03T11:25:53;14.13;;;13.30;;
1957;SDS011;979;51.076;13.748;2022-10-03T11:32:44;13.63;;;12.50;;
1957;SDS011;979;51.076;13.748;2022-10-03T11:37:37;13.40;;;12.60;;
1957;SDS011;979;51.076;13.748;2022-10-03T11:44:50;13.97;;;13.10;;
1957;SDS011;979;51.076;13.748;2022-10-03T11:47:37;13.97;;;13.23;;
1957;SDS011;979;51.076;13.748;2022-10-03T11:50:31;15.70;;;14.80;;
1957;SDS011;979;51.076;13.748;2022-10-03T11:56:15;14.77;;;13.97;;
1957;SDS011;979;51.076;13.748;2022-10-03T11:58:11;13.67;;;13.17;;
1957;SDS011;979;51.076;13.748;2022-10-03T12:05:14;16.23;;;15.00;;
1957;SDS011;979;51.076;13.748;2022-10-03T12:08:24;15.27;;;14.37;;
1957;SDS011;979;51.076;13.748;2022-10-03T12:11:41;14.70;;;14.00;;
1957;SDS011;979;51.076;13.748;2022-10-03T12:14:51;16.20;;;14.93;;
1957;SDS011;979;51.076;13.748;2022-10-03T12:17:44;15.47;;;14.70;;
1957;SDS011;979;51.076;13.748;2022-10-03T12:20:28;16.90;;;15.90;;
1957;SDS011;979;51.076;13.748;2022-10-03T12:23:18;15.13;;;14.23;;
1957;SDS011;979;51.076;13.748;2022-10-03T12:26:19;15.03;;;14.00;;
1957;SDS011;979;51.076;13.748;2022-10-03T12:29:23;16.93;;;16.00;;
1957;SDS011;979;51.076;13.748;2022-10-03T12:32:29;14.60;;;14.00;;
1957;SDS011;979;51.076;13.748;2022-10-03T12:35:25;14.20;;;13.40;;
1957;SDS011;979;51.076;13.748;2022-10-03T12:38:40;14.40;;;13.40;;
1957;SDS011;979;51.076;13.748;2022-10-03T12:41:39;14.27;;;13.63;;
1957;SDS011;979;51.076;13.748;2022-10-03T12:45:03;14.70;;;13.80;;
1957;SDS011;979;51.076;13.748;2022-10-03T12:48:29;14.00;;;13.10;;
1957;SDS011;979;51.076;13.748;2022-10-03T12:51:41;13.20;;;12.53;;
1957;SDS011;979;51.076;13.748;2022-10-03T12:54:32;14.20;;;13.10;;
1957;SDS011;979;51.076;13.748;2022-10-03T12:57:36;13.83;;;13.20;;
1957;SDS011;979;51.076;13.748;2022-10-03T13:00:38;13.33;;;12.83;;
1957;SDS011;979;51.076;13.748;2022-10-03T13:03:46;13.60;;;12.70;;
1957;SDS011;979;51.076;13.748;2022-10-03T13:07:02;13.50;;;12.57;;
1957;SDS011;979;51.076;13.748;2022-10-03T13:10:14;14.47;;;13.67;;
1957;SDS011;979;51.076;13.748;2022-10-03T13:13:22;15.10;;;14.20;;
1957;SDS011;979;51.076;13.748;2022-10-03T13:16:31;13.10;;;12.20;;
1957;SDS011;979;51.076;13.748;2022-10-03T13:22:12;15.13;;;14.03;;
1957;SDS011;979;51.076;13.748;2022-10-03T13:25:09;14.90;;;13.97;;
1957;SDS011;979;51.076;13.748;2022-10-03T13:28:25;14.40;;;13.70;;
1957;SDS011;979;51.076;13.748;2022-10-03T13:31:21;14.90;;;13.77;;
1957;SDS011;979;51.076;13.748;2022-10-03T13:41:55;14.53;;;13.73;;
1957;SDS011;979;51.076;13.748;2022-10-03T13:44:48;14.20;;;13.37;;
1957;SDS011;979;51.076;13.748;2022-10-03T13:47:45;14.57;;;13.50;;
1957;SDS011;979;51.076;13.748;2022-10-03T13:51:24;13.10;;;12.60;;
1957;SDS011;979;51.076;13.748;2022-10-03T13:54:34;14.67;;;13.67;;
1957;SDS011;979;51.076;13.748;2022-10-03T13:57:53;14.80;;;13.50;;
1957;SDS011;979;51.076;13.748;2022-10-03T14:01:11;15.17;;;14.37;;
1957;SDS011;979;51.076;13.748;2022-10-03T14:04:42;14.70;;;14.00;;
1957;SDS011;979;51.076;13.748;2022-10-03T14:07:51;15.13;;;14.30;;
1957;SDS011;979;51.076;13.748;2022-10-03T14:11:00;15.10;;;14.30;;
1957;SDS011;979;51.076;13.748;2022-10-03T14:14:29;14.60;;;13.83;;
1957;SDS011;979;51.076;13.748;2022-10-03T14:17:30;14.43;;;13.70;;
1957;SDS011;979;51.076;13.748;2022-10-03T14:24:01;14.37;;;13.50;;
1957;SDS011;979;51.076;13.748;2022-10-03T14:27:19;15.10;;;14.10;;
1957;SDS011;979;51.076;13.748;2022-10-03T14:30:12;17.30;;;15.90;;
1957;SDS011;979;51.076;13.748;2022-10-03T14:32:59;15.90;;;14.73;;
1957;SDS011;979;51.076;13.748;2022-10-03T14:35:51;16.13;;;15.27;;
1957;SDS011;979;51.076;13.748;2022-10-03T14:38:45;14.83;;;13.47;;
1957;SDS011;979;51.076;13.748;2022-10-03T14:42:02;15.27;;;14.40;;
1957;SDS011;979;51.076;13.748;2022-10-03T14:45:16;15.37;;;14.77;;
1957;SDS011;979;51.076;13.748;2022-10-03T14:48:05;14.33;;;13.47;;
1957;SDS011;979;51.076;13.748;2022-10-03T14:51:28;13.33;;;12.73;;
1957;SDS011;979;51.076;13.748;2022-10-03T14:54:37;13.47;;;12.73;;
1957;SDS011;979;51.076;13.748;2022-10-03T14:57:29;14.60;;;13.43;;
1957;SDS011;979;51.076;13.748;2022-10-03T15:00:33;13.53;;;12.73;;
1957;SDS011;979;51.076;13.748;2022-10-03T15:03:23;13.50;;;13.00;;
1957;SDS011;979;51.076;13.748;2022-10-03T15:06:19;14.30;;;13.60;;
1957;SDS011;979;51.076;13.748;2022-10-03T15:09:47;15.27;;;14.20;;
1957;SDS011;979;51.076;13.748;2022-10-03T15:12:37;14.70;;;13.60;;
1957;SDS011;979;51.076;13.748;2022-10-03T15:15:25;12.97;;;12.43;;
1957;SDS011;979;51.076;13.748;2022-10-03T15:18:06;14.10;;;13.23;;
1957;SDS011;979;51.076;13.748;2022-10-03T15:20:52;14.00;;;13.47;;
1957;SDS011;979;51.076;13.748;2022-10-03T15:23:35;15.07;;;14.10;;
1957;SDS011;979;51.076;13.748;2022-10-03T15:26:15;14.13;;;13.60;;
1957;SDS011;979;51.076;13.748;2022-10-03T15:28:48;15.40;;;14.40;;
1957;SDS011;979;51.076;13.748;2022-10-03T15:31:40;14.17;;;13.50;;
1957;SDS011;979;51.076;13.748;2022-10-03T15:38:20;13.13;;;12.50;;
1957;SDS011;979;51.076;13.748;2022-10-03T15:44:39;14.37;;;13.57;;
1957;SDS011;979;51.076;13.748;2022-10-03T15:47:33;13.77;;;13.23;;
1957;SDS011;979;51.076;13.748;2022-10-03T15:50:16;13.53;;;13.13;;
1957;SDS011;979;51.076;13.748;2022-10-03T15:52:48;14.83;;;13.73;;
1957;SDS011;979;51.076;13.748;2022-10-03T15:55:20;14.80;;;13.67;;
1957;SDS011;979;51.076;13.748;2022-10-03T15:57:58;14.40;;;13.60;;
1957;SDS011;979;51.076;13.748;2022-10-03T16:00:34;13.87;;;13.13;;
1957;SDS011;979;51.076;13.748;2022-10-03T16:03:07;16.47;;;15.27;;
1957;SDS011;979;51.076;13.748;2022-10-03T16:05:51;14.60;;;13.60;;
1957;SDS011;979;51.076;13.748;2022-10-03T16:08:31;13.70;;;13.10;;
1957;SDS011;979;51.076;13.748;2022-10-03T16:11:12;15.40;;;13.93;;
1957;SDS011;979;51.076;13.748;2022-10-03T16:13:55;15.50;;;14.60;;
1957;SDS011;979;51.076;13.748;2022-10-03T16:16:55;14.33;;;13.30;;
1957;SDS011;979;51.076;13.748;2022-10-03T16:19:35;14.03;;;12.77;;
1957;SDS011;979;51.076;13.748;2022-10-03T16:22:33;14.37;;;13.17;;
1957;SDS011;979;51.076;13.748;2022-10-03T16:25:26;15.33;;;14.10;;
1957;SDS011;979;51.076;13.748;2022-10-03T16:28:15;14.57;;;13.30;;
1957;SDS011;979;51.076;13.748;2022-10-03T16:30:51;14.57;;;13.57;;
1957;SDS011;979;51.076;13.748;2022-10-03T16:37:14;14.73;;;13.70;;
1957;SDS011;979;51.076;13.748;2022-10-03T16:39:46;13.83;;;13.03;;
1957;SDS011;979;51.076;13.748;2022-10-03T16:42:28;15.70;;;14.77;;
1957;SDS011;979;51.076;13.748;2022-10-03T16:45:27;16.20;;;15.10;;
1957;SDS011;979;51.076;13.748;2022-10-03T16:48:02;18.23;;;16.50;;
1957;SDS011;979;51.076;13.748;2022-10-03T16:51:07;15.37;;;14.03;;
1957;SDS011;979;51.076;13.748;2022-10-03T16:53:50;13.63;;;13.00;;
1957;SDS011;979;51.076;13.748;2022-10-03T16:56:29;14.77;;;13.90;;
1957;SDS011;979;51.076;13.748;2022-10-03T16:59:17;17.07;;;15.53;;
1957;SDS011;979;51.076;13.748;2022-10-03T17:01:52;16.40;;;15.40;;
1957;SDS011;979;51.076;13.748;2022-10-03T17:04:40;15.87;;;15.07;;
1957;SDS011;979;51.076;13.748;2022-10-03T17:07:25;17.13;;;16.13;;
1957;SDS011;979;51.076;13.748;2022-10-03T17:10:32;15.50;;;14.73;;
1957;SDS011;979;51.076;13.748;2022-10-03T17:13:12;16.50;;;15.70;;
1957;SDS011;979;51.076;13.748;2022-10-03T17:16:22;16.90;;;15.57;;
1957;SDS011;979;51.076;13.748;2022-10-03T17:19:04;15.90;;;15.17;;
1957;SDS011;979;51.076;13.748;2022-10-03T17:21:45;18.30;;;16.93;;
1957;SDS011;979;51.076;13.748;2022-10-03T17:24:23;16.43;;;15.13;;
1957;SDS011;979;51.076;13.748;2022-10-03T17:27:21;15.50;;;14.50;;
1957;SDS011;979;51.076;13.748;2022-10-03T17:30:00;15.70;;;14.77;;
1957;SDS011;979;51.076;13.748;2022-10-03T17:32:41;15.80;;;14.90;;
1957;SDS011;979;51.076;13.748;2022-10-03T17:35:20;14.83;;;14.10;;
1957;SDS011;979;51.076;13.748;2022-10-03T17:41:21;14.40;;;13.80;;
1957;SDS011;979;51.076;13.748;2022-10-03T17:44:03;15.30;;;14.60;;
1957;SDS011;979;51.076;13.748;2022-10-03T17:46:50;14.80;;;14.00;;
1957;SDS011;979;51.076;13.748;2022-10-03T17:49:28;14.37;;;13.60;;
1957;SDS011;979;51.076;13.748;2022-10-03T17:52:17;14.47;;;13.67;;
1957;SDS011;979;51.076;13.748;2022-10-03T17:54:54;15.80;;;15.17;;
1957;SDS011;979;51.076;13.748;2022-10-03T17:57:26;15.13;;;14.33;;
1957;SDS011;979;51.076;13.748;2022-10-03T18:00:00;15.10;;;14.30;;
1957;SDS011;979;51.076;13.748;2022-10-03T18:02:37;14.97;;;14.17;;
1957;SDS011;979;51.076;13.748;2022-10-03T18:05:21;15.10;;;14.40;;
1957;SDS011;979;51.076;13.748;2022-10-03T18:07:54;15.90;;;15.00;;
1957;SDS011;979;51.076;13.748;2022-10-03T18:10:29;15.10;;;14.00;;
1957;SDS011;979;51.076;13.748;2022-10-03T18:13:05;14.17;;;13.63;;
1957;SDS011;979;51.076;13.748;2022-10-03T18:16:01;15.80;;;14.90;;
1957;SDS011;979;51.076;13.748;2022-10-03T18:18:54;15.60;;;14.87;;
1957;SDS011;979;51.076;13.748;2022-10-03T18:22:03;15.90;;;14.70;;
1957;SDS011;979;51.076;13.748;2022-10-03T18:25:17;14.03;;;13.20;;
1957;SDS011;979;51.076;13.748;2022-10-03T18:28:32;14.67;;;14.07;;
1957;SDS011;979;51.076;13.748;2022-10-03T18:31:25;13.30;;;12.60;;
1957;SDS011;979;51.076;13.748;2022-10-03T18:34:29;15.27;;;14.57;;
1957;SDS011;979;51.076;13.748;2022-10-03T18:40:38;14.07;;;13.27;;
1957;SDS011;979;51.076;13.748;2022-10-03T18:43:33;13.97;;;13.57;;
1957;SDS011;979;51.076;13.748;2022-10-03T18:46:14;14.67;;;14.17;;
1957;SDS011;979;51.076;13.748;2022-10-03T18:49:01;14.63;;;13.90;;
1957;SDS011;979;51.076;13.748;2022-10-03T18:52:03;14.03;;;13.33;;
1957;SDS011;979;51.076;13.748;2022-10-03T18:54:39;13.83;;;13.20;;
1957;SDS011;979;51.076;13.748;2022-10-03T18:57:46;14.93;;;14.00;;
1957;SDS011;979;51.076;13.748;2022-10-03T19:07:29;16.23;;;15.37;;
1957;SDS011;979;51.076;13.748;2022-10-03T19:13:22;15.30;;;14.43;;
1957;SDS011;979;51.076;13.748;2022-10-03T19:16:17;14.53;;;13.93;;
1957;SDS011;979;51.076;13.748;2022-10-03T19:22:30;14.03;;;13.50;;
1957;SDS011;979;51.076;13.748;2022-10-03T19:25:17;14.17;;;13.20;;
1957;SDS011;979;51.076;13.748;2022-10-03T19:27:53;14.03;;;13.33;;
1957;SDS011;979;51.076;13.748;2022-10-03T19:30:27;13.60;;;13.10;;
1957;SDS011;979;51.076;13.748;2022-10-03T19:33:02;14.00;;;13.40;;
1957;SDS011;979;51.076;13.748;2022-10-03T19:35:40;13.40;;;13.00;;
1957;SDS011;979;51.076;13.748;2022-10-03T19:38:24;14.10;;;13.50;;
1957;SDS011;979;51.076;13.748;2022-10-03T19:41:28;14.10;;;13.60;;
1957;SDS011;979;51.076;13.748;2022-10-03T19:44:34;14.30;;;13.73;;
1957;SDS011;979;51.076;13.748;2022-10-03T19:47:24;14.40;;;13.97;;
1957;SDS011;979;51.076;13.748;2022-10-03T19:50:20;15.40;;;14.73;;
1957;SDS011;979;51.076;13.748;2022-10-03T19:53:09;15.20;;;14.33;;
1957;SDS011;979;51.076;13.748;2022-10-03T19:55:46;14.77;;;14.07;;
1957;SDS011;979;51.076;13.748;2022-10-03T19:58:25;14.37;;;13.73;;
1957;SDS011;979;51.076;13.748;2022-10-03T20:01:15;14.60;;;14.10;;
1957;SDS011;979;51.076;13.748;2022-10-03T20:04:12;15.53;;;14.30;;
1957;SDS011;979;51.076;13.748;2022-10-03T20:07:08;13.93;;;13.33;;
1957;SDS011;979;51.076;13.748;2022-10-03T20:13:30;14.17;;;13.73;;
1957;SDS011;979;51.076;13.748;2022-10-03T20:16:39;14.80;;;14.10;;
1957;SDS011;979;51.076;13.748;2022-10-03T20:19:42;15.03;;;14.13;;
1957;SDS011;979;51.076;13.748;2022-10-03T20:23:05;14.90;;;14.23;;
1957;SDS011;979;51.076;13.748;2022-10-03T20:26:21;14.60;;;13.90;;
1957;SDS011;979;51.076;13.748;2022-10-03T20:36:15;13.50;;;13.00;;
1957;SDS011;979;51.076;13.748;2022-10-03T20:38:59;14.33;;;13.70;;
1957;SDS011;979;51.076;13.748;2022-10-03T20:41:54;14.20;;;13.70;;
1957;SDS011;979;51.076;13.748;2022-10-03T20:44:48;14.10;;;13.40;;
1957;SDS011;979;51.076;13.748;2022-10-03T20:47:45;14.47;;;14.07;;
1957;SDS011;979;51.076;13.748;2022-10-03T20:50:26;13.63;;;13.13;;
1957;SDS011;979;51.076;13.748;2022-10-03T20:53:09;13.77;;;13.27;;
1957;SDS011;979;51.076;13.748;2022-10-03T20:55:54;13.43;;;12.83;;
1957;SDS011;979;51.076;13.748;2022-10-03T20:58:34;15.03;;;14.23;;
1957;SDS011;979;51.076;13.748;2022-10-03T21:01:30;14.33;;;13.47;;
1957;SDS011;979;51.076;13.748;2022-10-03T21:04:56;13.50;;;13.00;;
1957;SDS011;979;51.076;13.748;2022-10-03T21:07:46;13.90;;;13.30;;
1957;SDS011;979;51.076;13.748;2022-10-03T21:10:50;14.60;;;13.80;;